sensor_id;sensor_type;location;lat;lon;timestamp;pressure;altitude;pressure_sealevel;temperature;humidity
57572;BME280;44459;43.522;24.470;2024-01-07T00:00:16;98796.44;;;5.96;100.00
57572;BME280;44459;43.522;24.470;2024-01-07T00:02:42;98801.66;;;6.05;100.00
57572;BME280;44459;43.522;24.470;2024-01-07T00:05:08;98796.44;;;6.10;100.00
57572;BME280;44459;43.522;24.470;2024-01-07T00:07:33;98791.19;;;6.19;100.00
57572;BME280;44459;43.522;24.470;2024-01-07T00:09:58;98790.34;;;6.25;100.00
57572;BME280;44459;43.522;24.470;2024-01-07T00:12:24;98785.94;;;6.36;100.00
57572;BME280;44459;43.522;24.470;2024-01-07T00:14:50;98779.84;;;6.47;100.00
57572;BME280;44459;43.522;24.470;2024-01-07T00:17:16;98781.56;;;6.56;100.00
57572;BME280;44459;43.522;24.470;2024-01-07T00:19:41;98788.53;;;6.63;100.00
57572;BME280;44459;43.522;24.470;2024-01-07T00:22:07;98795.56;;;6.63;100.00
57572;BME280;44459;43.522;24.470;2024-01-07T00:24:32;98791.16;;;6.63;100.00
57572;BME280;44459;43.522;24.470;2024-01-07T00:26:58;98806.03;;;6.56;100.00
57572;BME280;44459;43.522;24.470;2024-01-07T00:29:23;98792.09;;;6.45;100.00
57572;BME280;44459;43.522;24.470;2024-01-07T00:31:49;98760.59;;;6.54;100.00
57572;BME280;44459;43.522;24.470;2024-01-07T00:34:14;98758.81;;;6.70;100.00
57572;BME280;44459;43.522;24.470;2024-01-07T00:36:39;98766.69;;;6.76;100.00
57572;BME280;44459;43.522;24.470;2024-01-07T00:39:05;98767.56;;;6.65;100.00
57572;BME280;44459;43.522;24.470;2024-01-07T00:41:31;98767.59;;;6.49;100.00
57572;BME280;44459;43.522;24.470;2024-01-07T00:43:56;98754.50;;;6.48;100.00
57572;BME280;44459;43.522;24.470;2024-01-07T00:46:21;98740.47;;;6.67;100.00
57572;BME280;44459;43.522;24.470;2024-01-07T00:48:47;98748.31;;;6.79;100.00
57572;BME280;44459;43.522;24.470;2024-01-07T00:51:12;98741.34;;;6.65;100.00
57572;BME280;44459;43.522;24.470;2024-01-07T00:53:38;98740.50;;;6.43;100.00
57572;BME280;44459;43.522;24.470;2024-01-07T00:56:04;98732.69;;;6.41;100.00
57572;BME280;44459;43.522;24.470;2024-01-07T00:58:29;98730.03;;;6.35;100.00
57572;BME280;44459;43.522;24.470;2024-01-07T01:00:55;98722.19;;;6.11;100.00
57572;BME280;44459;43.522;24.470;2024-01-07T01:03:20;98711.72;;;6.00;100.00
57572;BME280;44459;43.522;24.470;2024-01-07T01:05:46;98705.63;;;5.98;100.00
57572;BME280;44459;43.522;24.470;2024-01-07T01:08:11;98697.78;;;5.95;100.00
57572;BME280;44459;43.522;24.470;2024-01-07T01:10:37;98695.13;;;5.80;100.00
57572;BME280;44459;43.522;24.470;2024-01-07T01:13:03;98690.81;;;5.88;100.00
57572;BME280;44459;43.522;24.470;2024-01-07T01:15:28;98690.78;;;5.94;100.00
57572;BME280;44459;43.522;24.470;2024-01-07T01:17:54;98682.94;;;5.97;100.00
57572;BME280;44459;43.522;24.470;2024-01-07T01:20:19;98695.19;;;5.89;100.00
57572;BME280;44459;43.522;24.470;2024-01-07T01:22:45;98691.66;;;6.01;100.00
57572;BME280;44459;43.522;24.470;2024-01-07T01:25:10;98689.03;;;6.12;100.00
57572;BME280;44459;43.522;24.470;2024-01-07T01:27:36;98677.69;;;6.20;100.00
57572;BME280;44459;43.522;24.470;2024-01-07T01:30:02;98691.66;;;6.18;100.00
57572;BME280;44459;43.522;24.470;2024-01-07T01:32:27;98695.16;;;6.04;100.00
57572;BME280;44459;43.522;24.470;2024-01-07T01:34:53;98679.47;;;5.92;100.00
57572;BME280;44459;43.522;24.470;2024-01-07T01:37:18;98666.31;;;5.77;100.00
57572;BME280;44459;43.522;24.470;2024-01-07T01:39:43;98694.31;;;5.93;100.00
57572;BME280;44459;43.522;24.470;2024-01-07T01:42:09;98682.94;;;5.91;100.00
57572;BME280;44459;43.522;24.470;2024-01-07T01:44:34;98656.75;;;5.88;100.00
57572;BME280;44459;43.522;24.470;2024-01-07T01:47:00;98667.22;;;5.82;100.00
57572;BME280;44459;43.522;24.470;2024-01-07T01:49:27;98670.69;;;5.78;100.00
57572;BME280;44459;43.522;24.470;2024-01-07T01:51:52;98657.59;;;5.71;100.00
57572;BME280;44459;43.522;24.470;2024-01-07T01:54:19;98647.13;;;5.66;100.00
57572;BME280;44459;43.522;24.470;2024-01-07T01:56:45;98648.88;;;5.75;100.00
57572;BME280;44459;43.522;24.470;2024-01-07T01:59:11;98636.66;;;5.83;100.00
57572;BME280;44459;43.522;24.470;2024-01-07T02:01:37;98634.91;;;5.80;100.00
57572;BME280;44459;43.522;24.470;2024-01-07T02:04:03;98628.78;;;5.80;100.00
57572;BME280;44459;43.522;24.470;2024-01-07T02:06:28;98626.19;;;5.78;100.00
57572;BME280;44459;43.522;24.470;2024-01-07T02:08:55;98620.06;;;5.70;100.00
57572;BME280;44459;43.522;24.470;2024-01-07T02:11:22;98611.38;;;5.61;100.00
57572;BME280;44459;43.522;24.470;2024-01-07T02:13:48;98606.13;;;5.56;100.00
57572;BME280;44459;43.522;24.470;2024-01-07T02:16:14;98599.16;;;5.64;100.00
57572;BME280;44459;43.522;24.470;2024-01-07T02:18:41;98601.78;;;5.66;100.00
57572;BME280;44459;43.522;24.470;2024-01-07T02:21:09;98616.63;;;5.62;100.00
57572;BME280;44459;43.522;24.470;2024-01-07T02:23:34;98600.03;;;5.49;100.00
57572;BME280;44459;43.522;24.470;2024-01-07T02:26:00;98603.53;;;5.33;100.00
57572;BME280;44459;43.522;24.470;2024-01-07T02:28:25;98616.59;;;5.32;100.00
57572;BME280;44459;43.522;24.470;2024-01-07T02:30:51;98610.50;;;5.24;100.00
57572;BME280;44459;43.522;24.470;2024-01-07T02:33:16;98603.50;;;5.20;100.00
57572;BME280;44459;43.522;24.470;2024-01-07T02:35:42;98590.41;;;5.21;100.00
57572;BME280;44459;43.522;24.470;2024-01-07T02:38:07;98597.41;;;5.19;100.00
57572;BME280;44459;43.522;24.470;2024-01-07T02:40:33;98586.94;;;5.08;100.00
57572;BME280;44459;43.522;24.470;2024-01-07T02:42:58;98584.28;;;5.07;100.00
57572;BME280;44459;43.522;24.470;2024-01-07T02:45:24;98586.88;;;4.90;100.00
57572;BME280;44459;43.522;24.470;2024-01-07T02:47:49;98591.22;;;4.78;100.00
57572;BME280;44459;43.522;24.470;2024-01-07T02:50:15;98593.78;;;4.66;100.00
57572;BME280;44459;43.522;24.470;2024-01-07T02:52:41;98596.44;;;4.67;100.00
57572;BME280;44459;43.522;24.470;2024-01-07T02:55:07;98579.84;;;4.53;100.00
57572;BME280;44459;43.522;24.470;2024-01-07T02:57:33;98564.13;;;4.44;100.00
57572;BME280;44459;43.522;24.470;2024-01-07T02:59:58;98563.28;;;4.46;100.00
57572;BME280;44459;43.522;24.470;2024-01-07T03:02:24;98563.28;;;4.46;100.00
57572;BME280;44459;43.522;24.470;2024-01-07T03:04:49;98558.97;;;4.57;100.00
57572;BME280;44459;43.522;24.470;2024-01-07T03:07:14;98554.59;;;4.61;100.00
57572;BME280;44459;43.522;24.470;2024-01-07T03:09:40;98538.00;;;4.45;100.00
57572;BME280;44459;43.522;24.470;2024-01-07T03:12:06;98531.88;;;4.34;100.00
57572;BME280;44459;43.522;24.470;2024-01-07T03:14:31;98544.03;;;4.25;100.00
57572;BME280;44459;43.522;24.470;2024-01-07T03:16:56;98558.00;;;4.33;100.00
57572;BME280;44459;43.522;24.470;2024-01-07T03:19:22;98541.44;;;4.29;100.00
57572;BME280;44459;43.522;24.470;2024-01-07T03:21:48;98521.38;;;4.19;100.00
57572;BME280;44459;43.522;24.470;2024-01-07T03:24:14;98523.13;;;4.20;100.00
57572;BME280;44459;43.522;24.470;2024-01-07T03:26:39;98517.03;;;4.27;100.00
57572;BME280;44459;43.522;24.470;2024-01-07T03:29:05;98523.09;;;4.17;100.00
57572;BME280;44459;43.522;24.470;2024-01-07T03:31:30;98517.94;;;4.23;100.00
57572;BME280;44459;43.522;24.470;2024-01-07T03:33:56;98515.31;;;4.28;100.00
57572;BME280;44459;43.522;24.470;2024-01-07T03:36:21;98504.91;;;4.43;100.00
57572;BME280;44459;43.522;24.470;2024-01-07T03:38:47;98504.03;;;4.48;100.00
57572;BME280;44459;43.522;24.470;2024-01-07T03:41:16;98502.34;;;4.58;100.00
57572;BME280;44459;43.522;24.470;2024-01-07T03:43:43;98495.38;;;4.62;100.00
57572;BME280;44459;43.522;24.470;2024-01-07T03:46:08;98494.50;;;4.61;100.00
57572;BME280;44459;43.522;24.470;2024-01-07T03:48:33;98489.25;;;4.55;100.00
57572;BME280;44459;43.522;24.470;2024-01-07T03:50:59;98479.69;;;4.52;100.00
57572;BME280;44459;43.522;24.470;2024-01-07T03:53:24;98484.06;;;4.58;100.00
57572;BME280;44459;43.522;24.470;2024-01-07T03:55:50;98491.00;;;4.59;100.00
57572;BME280;44459;43.522;24.470;2024-01-07T03:58:15;98484.03;;;4.46;100.00
57572;BME280;44459;43.522;24.470;2024-01-07T04:00:40;98473.56;;;4.40;100.00
57572;BME280;44459;43.522;24.470;2024-01-07T04:03:06;98470.94;;;4.29;100.00
57572;BME280;44459;43.522;24.470;2024-01-07T04:05:31;98474.41;;;4.25;100.00
57572;BME280;44459;43.522;24.470;2024-01-07T04:08:00;98472.66;;;4.24;100.00
57572;BME280;44459;43.522;24.470;2024-01-07T04:10:25;98461.31;;;4.21;100.00
57572;BME280;44459;43.522;24.470;2024-01-07T04:12:51;98446.47;;;3.97;100.00
57572;BME280;44459;43.522;24.470;2024-01-07T04:15:16;98445.59;;;4.01;100.00
57572;BME280;44459;43.522;24.470;2024-01-07T04:17:41;98442.13;;;3.99;100.00
57572;BME280;44459;43.522;24.470;2024-01-07T04:20:07;98444.69;;;3.93;100.00
57572;BME280;44459;43.522;24.470;2024-01-07T04:22:33;98436.91;;;4.02;100.00
57572;BME280;44459;43.522;24.470;2024-01-07T04:24:58;98434.31;;;4.05;100.00
57572;BME280;44459;43.522;24.470;2024-01-07T04:27:24;98443.00;;;4.10;100.00
57572;BME280;44459;43.522;24.470;2024-01-07T04:29:52;98446.50;;;4.06;100.00
57572;BME280;44459;43.522;24.470;2024-01-07T04:32:17;98438.59;;;3.92;100.00
57572;BME280;44459;43.522;24.470;2024-01-07T04:34:43;98429.88;;;3.89;100.00
57572;BME280;44459;43.522;24.470;2024-01-07T04:37:08;98428.16;;;3.83;100.00
57572;BME280;44459;43.522;24.470;2024-01-07T04:39:33;98429.88;;;3.77;100.00
57572;BME280;44459;43.522;24.470;2024-01-07T04:41:59;98420.31;;;3.80;100.00
57572;BME280;44459;43.522;24.470;2024-01-07T04:44:24;98409.81;;;3.67;100.00
57572;BME280;44459;43.522;24.470;2024-01-07T04:46:50;98415.91;;;3.66;100.00
57572;BME280;44459;43.522;24.470;2024-01-07T04:49:15;98399.41;;;3.70;100.00
57572;BME280;44459;43.522;24.470;2024-01-07T04:51:41;98404.63;;;3.70;100.00
57572;BME280;44459;43.522;24.470;2024-01-07T04:54:06;98408.97;;;3.71;100.00
57572;BME280;44459;43.522;24.470;2024-01-07T04:56:32;98408.97;;;3.75;100.00
57572;BME280;44459;43.522;24.470;2024-01-07T04:58:58;98407.22;;;3.76;100.00
57572;BME280;44459;43.522;24.470;2024-01-07T05:01:23;98405.50;;;3.79;100.00
57572;BME280;44459;43.522;24.470;2024-01-07T05:03:49;98408.13;;;3.81;100.00
57572;BME280;44459;43.522;24.470;2024-01-07T05:06:14;98415.06;;;3.82;100.00
57572;BME280;44459;43.522;24.470;2024-01-07T05:08:40;98407.28;;;3.83;100.00
57572;BME280;44459;43.522;24.470;2024-01-07T05:11:06;98397.69;;;3.78;100.00
57572;BME280;44459;43.522;24.470;2024-01-07T05:13:31;98399.41;;;3.76;100.00
57572;BME280;44459;43.522;24.470;2024-01-07T05:15:57;98395.06;;;3.70;100.00
57572;BME280;44459;43.522;24.470;2024-01-07T05:18:23;98399.38;;;3.61;100.00
57572;BME280;44459;43.522;24.470;2024-01-07T05:20:50;98393.22;;;3.51;100.00
57572;BME280;44459;43.522;24.470;2024-01-07T05:23:15;98391.50;;;3.50;100.00
57572;BME280;44459;43.522;24.470;2024-01-07T05:25:45;98377.53;;;3.42;100.00
57572;BME280;44459;43.522;24.470;2024-01-07T05:28:11;98381.03;;;3.44;100.00
57572;BME280;44459;43.522;24.470;2024-01-07T05:30:38;98389.72;;;3.43;100.00
57572;BME280;44459;43.522;24.470;2024-01-07T05:33:03;98381.91;;;3.44;100.00
57572;BME280;44459;43.522;24.470;2024-01-07T05:35:29;98378.44;;;3.42;100.00
57572;BME280;44459;43.522;24.470;2024-01-07T05:37:54;98385.38;;;3.48;100.00
57572;BME280;44459;43.522;24.470;2024-01-07T05:40:19;98361.94;;;3.49;100.00
57572;BME280;44459;43.522;24.470;2024-01-07T05:42:45;98357.56;;;3.44;100.00
57572;BME280;44459;43.522;24.470;2024-01-07T05:45:10;98365.38;;;3.39;100.00
57572;BME280;44459;43.522;24.470;2024-01-07T05:47:36;98366.25;;;3.47;100.00
57572;BME280;44459;43.522;24.470;2024-01-07T05:50:02;98353.22;;;3.46;100.00
57572;BME280;44459;43.522;24.470;2024-01-07T05:52:27;98364.53;;;3.49;100.00
57572;BME280;44459;43.522;24.470;2024-01-07T05:54:53;98381.06;;;3.50;100.00
57572;BME280;44459;43.522;24.470;2024-01-07T05:57:18;98393.22;;;3.51;100.00
57572;BME280;44459;43.522;24.470;2024-01-07T05:59:44;98379.34;;;3.55;100.00
57572;BME280;44459;43.522;24.470;2024-01-07T06:02:10;98380.22;;;3.60;100.00
57572;BME280;44459;43.522;24.470;2024-01-07T06:04:39;98376.72;;;3.58;100.00
57572;BME280;44459;43.522;24.470;2024-01-07T06:07:06;98378.47;;;3.54;100.00
57572;BME280;44459;43.522;24.470;2024-01-07T06:09:31;98390.63;;;3.51;100.00
57572;BME280;44459;43.522;24.470;2024-01-07T06:11:56;98386.31;;;3.56;100.00
57572;BME280;44459;43.522;24.470;2024-01-07T06:14:22;98382.84;;;3.60;100.00
57572;BME280;44459;43.522;24.470;2024-01-07T06:16:48;98369.78;;;3.57;100.00
57572;BME280;44459;43.522;24.470;2024-01-07T06:19:13;98360.22;;;3.56;100.00
57572;BME280;44459;43.522;24.470;2024-01-07T06:21:40;98360.22;;;3.59;100.00
57572;BME280;44459;43.522;24.470;2024-01-07T06:24:07;98354.13;;;3.62;100.00
57572;BME280;44459;43.522;24.470;2024-01-07T06:26:33;98357.63;;;3.59;100.00
57572;BME280;44459;43.522;24.470;2024-01-07T06:28:58;98360.22;;;3.65;100.00
57572;BME280;44459;43.522;24.470;2024-01-07T06:31:24;98353.31;;;3.67;100.00
57572;BME280;44459;43.522;24.470;2024-01-07T06:33:50;98369.81;;;3.69;100.00
57572;BME280;44459;43.522;24.470;2024-01-07T06:36:15;98363.75;;;3.67;100.00
57572;BME280;44459;43.522;24.470;2024-01-07T06:38:41;98366.34;;;3.69;100.00
57572;BME280;44459;43.522;24.470;2024-01-07T06:41:06;98369.88;;;3.78;100.00
57572;BME280;44459;43.522;24.470;2024-01-07T06:43:32;98373.31;;;3.79;100.00
57572;BME280;44459;43.522;24.470;2024-01-07T06:45:57;98368.09;;;3.79;100.00
57572;BME280;44459;43.522;24.470;2024-01-07T06:48:23;98355.94;;;3.76;100.00
57572;BME280;44459;43.522;24.470;2024-01-07T06:50:48;98355.06;;;3.79;100.00
57572;BME280;44459;43.522;24.470;2024-01-07T06:53:13;98345.50;;;3.79;100.00
57572;BME280;44459;43.522;24.470;2024-01-07T06:55:39;98350.72;;;3.76;100.00
57572;BME280;44459;43.522;24.470;2024-01-07T06:58:04;98343.75;;;3.77;100.00
57572;BME280;44459;43.522;24.470;2024-01-07T07:00:30;98342.03;;;3.85;100.00
57572;BME280;44459;43.522;24.470;2024-01-07T07:02:55;98337.66;;;3.82;100.00
57572;BME280;44459;43.522;24.470;2024-01-07T07:05:21;98343.75;;;3.86;100.00
57572;BME280;44459;43.522;24.470;2024-01-07T07:07:46;98337.69;;;3.87;100.00
57572;BME280;44459;43.522;24.470;2024-01-07T07:10:12;98349.88;;;3.89;100.00
57572;BME280;44459;43.522;24.470;2024-01-07T07:12:37;98364.69;;;3.95;100.00
57572;BME280;44459;43.522;24.470;2024-01-07T07:15:02;98376.88;;;3.97;100.00
57572;BME280;44459;43.522;24.470;2024-01-07T07:17:28;98399.53;;;4.06;100.00
57572;BME280;44459;43.522;24.470;2024-01-07T07:19:53;98416.03;;;4.10;100.00
57572;BME280;44459;43.522;24.470;2024-01-07T07:22:19;98423.88;;;4.11;100.00
57572;BME280;44459;43.522;24.470;2024-01-07T07:24:44;98431.72;;;4.20;100.00
57572;BME280;44459;43.522;24.470;2024-01-07T07:27:10;98420.44;;;4.20;100.00
57572;BME280;44459;43.522;24.470;2024-01-07T07:29:35;98407.38;;;4.20;100.00
57572;BME280;44459;43.522;24.470;2024-01-07T07:32:00;98405.63;;;4.16;100.00
57572;BME280;44459;43.522;24.470;2024-01-07T07:34:26;98405.59;;;4.10;100.00
57572;BME280;44459;43.522;24.470;2024-01-07T07:36:51;98415.19;;;4.06;100.00
57572;BME280;44459;43.522;24.470;2024-01-07T07:39:17;98425.63;;;4.15;100.00
57572;BME280;44459;43.522;24.470;2024-01-07T07:41:42;98446.53;;;4.18;100.00
57572;BME280;44459;43.522;24.470;2024-01-07T07:44:08;98453.50;;;4.22;100.00
57572;BME280;44459;43.522;24.470;2024-01-07T07:46:33;98454.38;;;4.26;100.00
57572;BME280;44459;43.522;24.470;2024-01-07T07:48:58;98461.38;;;4.36;100.00
57572;BME280;44459;43.522;24.470;2024-01-07T07:51:26;98454.38;;;4.38;100.00
57572;BME280;44459;43.522;24.470;2024-01-07T07:53:52;98448.31;;;4.42;100.00
57572;BME280;44459;43.522;24.470;2024-01-07T07:56:17;98436.97;;;4.41;100.00
57572;BME280;44459;43.522;24.470;2024-01-07T07:58:42;98443.94;;;4.41;100.00
57572;BME280;44459;43.522;24.470;2024-01-07T08:01:08;98441.34;;;4.39;100.00
57572;BME280;44459;43.522;24.470;2024-01-07T08:03:33;98445.72;;;4.40;100.00
57572;BME280;44459;43.522;24.470;2024-01-07T08:06:00;98444.84;;;4.46;100.00
57572;BME280;44459;43.522;24.470;2024-01-07T08:08:25;98441.38;;;4.44;100.00
57572;BME280;44459;43.522;24.470;2024-01-07T08:10:50;98442.22;;;4.43;100.00
57572;BME280;44459;43.522;24.470;2024-01-07T08:13:16;98448.31;;;4.45;100.00
57572;BME280;44459;43.522;24.470;2024-01-07T08:15:41;98443.09;;;4.43;100.00
57572;BME280;44459;43.522;24.470;2024-01-07T08:18:07;98427.41;;;4.42;100.00
57572;BME280;44459;43.522;24.470;2024-01-07T08:20:32;98427.41;;;4.45;100.00
57572;BME280;44459;43.522;24.470;2024-01-07T08:22:58;98421.34;;;4.47;100.00
57572;BME280;44459;43.522;24.470;2024-01-07T08:25:23;98423.94;;;4.52;100.00
57572;BME280;44459;43.522;24.470;2024-01-07T08:27:49;98417.88;;;4.57;100.00
57572;BME280;44459;43.522;24.470;2024-01-07T08:30:14;98411.78;;;4.62;100.00
57572;BME280;44459;43.522;24.470;2024-01-07T08:32:40;98413.50;;;4.60;100.00
57572;BME280;44459;43.522;24.470;2024-01-07T08:35:06;98407.38;;;4.65;100.00
57572;BME280;44459;43.522;24.470;2024-01-07T08:37:32;98416.13;;;4.61;100.00
57572;BME280;44459;43.522;24.470;2024-01-07T08:39:58;98416.09;;;4.60;100.00
57572;BME280;44459;43.522;24.470;2024-01-07T08:42:24;98405.66;;;4.61;100.00
57572;BME280;44459;43.522;24.470;2024-01-07T08:44:50;98406.53;;;4.51;100.00
57572;BME280;44459;43.522;24.470;2024-01-07T08:47:15;98397.84;;;4.47;100.00
57572;BME280;44459;43.522;24.470;2024-01-07T08:49:41;98385.63;;;4.48;100.00
57572;BME280;44459;43.522;24.470;2024-01-07T08:52:06;98381.28;;;4.47;100.00
57572;BME280;44459;43.522;24.470;2024-01-07T08:54:32;98369.09;;;4.50;100.00
57572;BME280;44459;43.522;24.470;2024-01-07T08:56:58;98375.16;;;4.45;100.00
57572;BME280;44459;43.522;24.470;2024-01-07T08:59:24;98374.31;;;4.47;100.00
57572;BME280;44459;43.522;24.470;2024-01-07T09:01:49;98361.25;;;4.43;100.00
57572;BME280;44459;43.522;24.470;2024-01-07T09:04:15;98351.66;;;4.39;100.00
57572;BME280;44459;43.522;24.470;2024-01-07T09:06:43;98355.16;;;4.35;100.00
57572;BME280;44459;43.522;24.470;2024-01-07T09:09:08;98344.72;;;4.30;100.00
57572;BME280;44459;43.522;24.470;2024-01-07T09:11:34;98347.31;;;4.35;100.00
57572;BME280;44459;43.522;24.470;2024-01-07T09:14:00;98336.00;;;4.36;100.00
57572;BME280;44459;43.522;24.470;2024-01-07T09:16:26;98335.13;;;4.40;100.00
57572;BME280;44459;43.522;24.470;2024-01-07T09:18:52;98329.00;;;4.41;100.00
57572;BME280;44459;43.522;24.470;2024-01-07T09:21:17;98319.47;;;4.43;100.00
57572;BME280;44459;43.522;24.470;2024-01-07T09:23:44;98326.41;;;4.39;100.00
57572;BME280;44459;43.522;24.470;2024-01-07T09:26:09;98314.22;;;4.31;100.00
57572;BME280;44459;43.522;24.470;2024-01-07T09:28:35;98313.38;;;4.36;100.00
57572;BME280;44459;43.522;24.470;2024-01-07T09:31:00;98317.72;;;4.46;100.00
57572;BME280;44459;43.522;24.470;2024-01-07T09:33:25;98319.44;;;4.46;100.00
57572;BME280;44459;43.522;24.470;2024-01-07T09:35:51;98324.66;;;4.52;100.00
57572;BME280;44459;43.522;24.470;2024-01-07T09:38:16;98327.28;;;4.52;100.00
57572;BME280;44459;43.522;24.470;2024-01-07T09:40:42;98337.75;;;4.50;100.00
57572;BME280;44459;43.522;24.470;2024-01-07T09:43:07;98342.97;;;4.61;100.00
57572;BME280;44459;43.522;24.470;2024-01-07T09:45:36;98342.94;;;4.75;100.00
57572;BME280;44459;43.522;24.470;2024-01-07T09:48:01;98341.16;;;4.83;100.00
57572;BME280;44459;43.522;24.470;2024-01-07T09:50:27;98353.38;;;4.85;100.00
57572;BME280;44459;43.522;24.470;2024-01-07T09:52:55;98367.31;;;4.87;100.00
57572;BME280;44459;43.522;24.470;2024-01-07T09:55:30;98388.22;;;4.87;100.00
57572;BME280;44459;43.522;24.470;2024-01-07T09:57:56;98396.06;;;4.83;100.00
57572;BME280;44459;43.522;24.470;2024-01-07T10:00:22;98391.72;;;4.82;100.00
57572;BME280;44459;43.522;24.470;2024-01-07T10:02:47;98395.19;;;4.76;100.00
57572;BME280;44459;43.522;24.470;2024-01-07T10:05:13;98403.91;;;4.81;100.00
57572;BME280;44459;43.522;24.470;2024-01-07T10:07:38;98396.06;;;4.84;100.00
57572;BME280;44459;43.522;24.470;2024-01-07T10:10:16;98402.16;;;4.86;100.00
57572;BME280;44459;43.522;24.470;2024-01-07T10:12:45;98414.38;;;4.81;100.00
57572;BME280;44459;43.522;24.470;2024-01-07T10:15:12;98416.09;;;4.87;100.00
57572;BME280;44459;43.522;24.470;2024-01-07T10:17:37;98407.41;;;4.82;100.00
57572;BME280;44459;43.522;24.470;2024-01-07T10:20:05;98400.44;;;4.82;100.00
57572;BME280;44459;43.522;24.470;2024-01-07T10:22:36;98404.78;;;4.82;100.00
57572;BME280;44459;43.522;24.470;2024-01-07T10:25:01;98405.66;;;4.82;100.00
57572;BME280;44459;43.522;24.470;2024-01-07T10:27:27;98402.16;;;4.80;100.00
57572;BME280;44459;43.522;24.470;2024-01-07T10:29:52;98403.03;;;4.79;100.00
57572;BME280;44459;43.522;24.470;2024-01-07T10:32:20;98408.28;;;4.82;100.00
57572;BME280;44459;43.522;24.470;2024-01-07T10:34:46;98407.38;;;4.86;100.00
57572;BME280;44459;43.522;24.470;2024-01-07T10:37:15;98396.94;;;4.80;100.00
57572;BME280;44459;43.522;24.470;2024-01-07T10:39:40;98394.34;;;4.85;100.00
57572;BME280;44459;43.522;24.470;2024-01-07T10:42:06;98396.94;;;4.92;100.00
57572;BME280;44459;43.522;24.470;2024-01-07T10:44:32;98391.72;;;4.89;100.00
57572;BME280;44459;43.522;24.470;2024-01-07T10:46:59;98396.06;;;4.92;100.00
57572;BME280;44459;43.522;24.470;2024-01-07T10:49:26;98400.41;;;4.94;100.00
57572;BME280;44459;43.522;24.470;2024-01-07T10:52:04;98404.78;;;5.03;100.00
57572;BME280;44459;43.522;24.470;2024-01-07T10:54:31;98393.41;;;5.04;100.00
57572;BME280;44459;43.522;24.470;2024-01-07T10:57:00;98395.19;;;5.06;100.00
57572;BME280;44459;43.522;24.470;2024-01-07T10:59:31;98389.94;;;5.00;100.00
57572;BME280;44459;43.522;24.470;2024-01-07T11:01:57;98395.19;;;4.94;100.00
57572;BME280;44459;43.522;24.470;2024-01-07T11:04:30;98384.72;;;4.97;100.00
57572;BME280;44459;43.522;24.470;2024-01-07T11:07:21;98381.22;;;5.00;100.00
57572;BME280;44459;43.522;24.470;2024-01-07T11:12:16;98375.16;;;4.92;100.00
57572;BME280;44459;43.522;24.470;2024-01-07T11:14:44;98382.13;;;4.85;100.00
57572;BME280;44459;43.522;24.470;2024-01-07T11:20:02;98384.75;;;4.88;100.00
57572;BME280;44459;43.522;24.470;2024-01-07T11:22:28;98379.50;;;4.91;100.00
57572;BME280;44459;43.522;24.470;2024-01-07T11:24:57;98375.13;;;4.98;100.00
57572;BME280;44459;43.522;24.470;2024-01-07T11:27:24;98380.34;;;5.05;100.00
57572;BME280;44459;43.522;24.470;2024-01-07T11:30:03;98379.47;;;5.13;100.00
57572;BME280;44459;43.522;24.470;2024-01-07T11:32:33;98398.59;;;5.21;100.00
57572;BME280;44459;43.522;24.470;2024-01-07T11:34:58;98397.72;;;5.25;100.00
57572;BME280;44459;43.522;24.470;2024-01-07T11:37:25;98407.34;;;5.26;100.00
57572;BME280;44459;43.522;24.470;2024-01-07T11:39:53;98393.38;;;5.27;100.00
57572;BME280;44459;43.522;24.470;2024-01-07T11:42:29;98391.66;;;5.27;100.00
57572;BME280;44459;43.522;24.470;2024-01-07T11:44:54;98393.38;;;5.27;100.00
57572;BME280;44459;43.522;24.470;2024-01-07T11:47:21;98388.16;;;5.30;100.00
57572;BME280;44459;43.522;24.470;2024-01-07T11:49:47;98378.56;;;5.27;100.00
57572;BME280;44459;43.522;24.470;2024-01-07T11:52:14;98383.75;;;5.36;100.00
57572;BME280;44459;43.522;24.470;2024-01-07T11:54:41;98375.91;;;5.38;100.00
57572;BME280;44459;43.522;24.470;2024-01-07T11:57:07;98384.59;;;5.43;100.00
57572;BME280;44459;43.522;24.470;2024-01-07T11:59:34;98374.16;;;5.37;100.00
57572;BME280;44459;43.522;24.470;2024-01-07T12:02:03;98376.75;;;5.47;100.00
57572;BME280;44459;43.522;24.470;2024-01-07T12:04:32;98381.03;;;5.59;100.00
57572;BME280;44459;43.522;24.470;2024-01-07T12:06:58;98368.81;;;5.64;100.00
57572;BME280;44459;43.522;24.470;2024-01-07T12:09:25;98373.13;;;5.73;100.00
57572;BME280;44459;43.522;24.470;2024-01-07T12:11:50;98376.59;;;5.81;100.00
57572;BME280;44459;43.522;24.470;2024-01-07T12:14:17;98377.47;;;5.81;100.00
57572;BME280;44459;43.522;24.470;2024-01-07T12:16:43;98367.88;;;5.89;100.00
57572;BME280;44459;43.522;24.470;2024-01-07T12:19:09;98368.72;;;5.84;100.00
57572;BME280;44459;43.522;24.470;2024-01-07T12:21:35;98373.97;;;5.87;100.00
57572;BME280;44459;43.522;24.470;2024-01-07T12:24:01;98371.28;;;6.02;100.00
57572;BME280;44459;43.522;24.470;2024-01-07T12:26:27;98371.25;;;6.10;100.00
57572;BME280;44459;43.522;24.470;2024-01-07T12:28:53;98363.38;;;6.08;100.00
57572;BME280;44459;43.522;24.470;2024-01-07T12:31:20;98356.38;;;6.08;100.00
57572;BME280;44459;43.522;24.470;2024-01-07T12:33:46;98365.06;;;6.20;100.00
57572;BME280;44459;43.522;24.470;2024-01-07T12:36:12;98364.22;;;6.13;100.00
57572;BME280;44459;43.522;24.470;2024-01-07T12:38:38;98361.56;;;6.21;100.00
57572;BME280;44459;43.522;24.470;2024-01-07T12:41:03;98368.50;;;6.26;100.00
57572;BME280;44459;43.522;24.470;2024-01-07T12:43:29;98371.03;;;6.40;100.00
57572;BME280;44459;43.522;24.470;2024-01-07T12:45:55;98370.97;;;6.49;100.00
57572;BME280;44459;43.522;24.470;2024-01-07T12:48:22;98367.34;;;6.61;100.00